Time;durP1;ratioP1;P1;durP2;ratioP2;P2;SDS_P1;SDS_P2;PMS_P1;PMS_P2;Temp;Humidity;BMP_temperature;BMP_pressure;BME280_temperature;BME280_humidity;BME280_pressure;Samples;Min_cycle;Max_cycle;Signal;HPM_P1;HPM_P2
2022/04/26 03:39:50;;;;;;;5.93;4.17;;;;;;;7.49;90.63;98948.09;8222884;28;20045;-72
2022/04/26 03:43:52;;;;;;;4.32;3.92;;;;;;;7.50;90.83;98944.66;8210085;28;20134;-71
2022/04/26 03:47:53;;;;;;;4.13;3.73;;;;;;;7.44;90.99;98948.97;8226135;28;20046;-71
2022/04/26 03:51:55;;;;;;;5.40;3.67;;;;;;;7.38;90.93;98952.41;8225818;28;20543;-71
2022/04/26 03:55:56;;;;;;;4.15;3.75;;;;;;;7.31;90.76;98953.25;8208624;28;20081;-72
2022/04/26 03:59:58;;;;;;;4.32;3.97;;;;;;;7.24;90.81;98961.84;8224556;28;20057;-71
2022/04/26 04:03:59;;;;;;;4.83;3.70;;;;;;;7.18;90.55;98964.41;8220418;28;20069;-72
2022/04/26 04:08:01;;;;;;;3.57;3.27;;;;;;;7.08;90.45;98957.50;8205413;28;20070;-71
2022/04/26 04:12:03;;;;;;;4.68;4.28;;;;;;;7.01;90.38;98968.69;8221185;28;20049;-71
2022/04/26 04:16:04;;;;;;;9.68;3.97;;;;;;;6.94;90.06;98962.63;8216678;28;20101;-71
2022/04/26 04:20:07;;;;;;;5.03;4.30;;;;;;;6.83;89.53;98965.19;8206897;28;20137;-71
2022/04/26 04:24:14;;;;;;;4.77;4.37;;;;;;;6.72;89.97;98972.03;8221381;28;20142;-72
2022/04/26 04:28:15;;;;;;;4.37;3.97;;;;;;;6.71;90.66;98983.19;8223440;28;20074;-72
2022/04/26 04:32:17;;;;;;;5.40;4.30;;;;;;;6.68;90.90;98983.19;8221979;28;20058;-72
2022/04/26 04:36:18;;;;;;;4.17;3.60;;;;;;;6.60;90.42;98987.44;8225737;28;20097;-72
2022/04/26 04:40:20;;;;;;;6.40;4.17;;;;;;;6.55;90.49;98986.56;8223546;28;20052;-72
2022/04/26 04:44:22;;;;;;;6.93;4.07;;;;;;;6.50;90.03;98993.41;8227517;28;20432;-72
2022/04/26 04:48:23;;;;;;;4.50;4.18;;;;;;;6.49;90.36;98997.72;8205463;28;20486;-72
2022/04/26 04:52:25;;;;;;;4.47;4.07;;;;;;;6.46;90.05;98996.81;8222826;28;20811;-72
2022/04/26 04:56:26;;;;;;;4.27;3.77;;;;;;;6.44;89.80;99001.97;8223650;28;20094;-72
2022/04/26 05:00:28;;;;;;;7.23;3.90;;;;;;;6.33;89.76;99004.50;8198736;28;20058;-72
2022/04/26 05:04:29;;;;;;;4.53;4.10;;;;;;;6.32;90.39;98999.31;8227055;28;20129;-72
2022/04/26 05:08:30;;;;;;;6.30;3.93;;;;;;;6.38;91.19;99008.81;8205670;28;20126;-72
2022/04/26 05:12:33;;;;;;;3.97;3.67;;;;;;;6.49;90.86;99010.59;8205839;28;20081;-72
2022/04/26 05:16:35;;;;;;;3.72;3.40;;;;;;;6.58;89.99;99007.19;8218776;28;20057;-71
2022/04/26 05:20:36;;;;;;;4.30;3.90;;;;;;;6.57;90.13;99005.47;8222527;28;20431;-71
2022/04/26 05:24:53;;;;;;;5.27;4.50;;;;;;;6.58;90.39;99009.78;8222833;28;20411;-71
2022/04/26 05:28:55;;;;;;;5.77;4.57;;;;;;;6.63;91.02;99027.00;8220923;28;20157;-71
2022/04/26 05:32:56;;;;;;;5.83;4.57;;;;;;;6.79;90.87;99032.25;8219970;28;20061;-71
2022/04/26 05:36:58;;;;;;;5.28;4.72;;;;;;;6.93;90.37;99046.06;8201071;28;20097;-71
2022/04/26 05:41:00;;;;;;;5.77;3.60;;;;;;;7.06;90.08;99045.28;8220453;28;20143;-71
2022/04/26 05:45:02;;;;;;;6.77;4.33;;;;;;;7.22;90.14;99049.66;8221084;28;20420;-71
2022/04/26 05:49:03;;;;;;;4.40;3.83;;;;;;;7.43;89.55;99046.25;8205757;28;20300;-72
2022/04/26 05:53:05;;;;;;;5.63;4.60;;;;;;;7.64;89.30;99052.31;8221220;28;20047;-72
2022/04/26 05:57:06;;;;;;;5.80;4.63;;;;;;;7.80;88.72;99056.66;8221133;28;20138;-72
2022/04/26 06:01:08;;;;;;;4.57;3.97;;;;;;;7.96;87.97;99055.81;8218248;28;20049;-71
2022/04/26 06:05:10;;;;;;;7.55;4.40;;;;;;;8.08;87.72;99055.84;8224839;28;20651;-73
2022/04/26 06:09:14;;;;;;;5.43;4.35;;;;;;;8.56;87.17;99060.97;8220652;28;20129;-71
2022/04/26 06:13:16;;;;;;;6.72;4.15;;;;;;;9.05;86.10;99061.72;8217580;28;20070;-72
2022/04/26 06:17:17;;;;;;;7.80;4.10;;;;;;;9.32;84.70;99053.81;8216481;28;20628;-72
2022/04/26 06:21:18;;;;;;;4.70;4.00;;;;;;;9.78;82.47;99063.09;8199632;28;20141;-72
2022/04/26 06:25:20;;;;;;;4.28;3.72;;;;;;;10.03;79.35;99067.22;8216947;28;20075;-72
2022/04/26 06:29:21;;;;;;;4.20;3.70;;;;;;;10.32;78.95;99071.34;8217855;28;20093;-71
2022/04/26 06:33:23;;;;;;;4.28;2.97;;;;;;;10.30;79.14;99068.78;8196342;28;20049;-71
2022/04/26 06:37:25;;;;;;;4.00;3.50;;;;;;;10.19;79.46;99071.41;8221005;28;20058;-71
2022/04/26 06:41:27;;;;;;;3.60;3.30;;;;;;;10.07;79.53;99079.31;8223011;28;20078;-72
2022/04/26 06:45:29;;;;;;;4.13;3.28;;;;;;;10.04;80.08;99081.03;8218032;28;20695;-73
2022/04/26 06:49:31;;;;;;;4.32;3.63;;;;;;;9.98;79.36;99080.22;8217547;28;20053;-74
2022/04/26 06:53:34;;;;;;;5.00;4.50;;;;;;;9.98;79.51;99089.72;8225342;28;20347;-73
2022/04/26 06:57:40;;;;;;;5.25;4.75;;;;;;;9.94;79.33;99098.41;8203692;28;20105;-72
2022/04/26 07:01:42;;;;;;;5.83;5.20;;;;;;;9.90;79.48;99092.41;8212175;28;20043;-72
2022/04/26 07:05:44;;;;;;;9.90;5.67;;;;;;;9.93;79.11;99097.56;8220908;28;20370;-72
2022/04/26 07:09:45;;;;;;;6.38;5.28;;;;;;;10.02;80.08;99087.97;8222072;28;20362;-73
2022/04/26 07:13:48;;;;;;;9.13;5.87;;;;;;;10.15;79.72;99094.81;8228967;28;20058;-73
2022/04/26 07:17:50;;;;;;;6.93;5.50;;;;;;;10.37;78.41;99090.34;8223529;28;20068;-73
2022/04/26 07:21:52;;;;;;;9.35;5.63;;;;;;;10.55;76.63;99087.56;8223462;28;20046;-73
2022/04/26 07:26:05;;;;;;;6.05;5.32;;;;;;;10.78;73.85;99090.84;8224472;28;20043;-72
2022/04/26 07:30:06;;;;;;;4.90;4.50;;;;;;;11.40;73.25;99086.66;8225494;28;20137;-72
2022/04/26 07:34:20;;;;;;;4.80;4.40;;;;;;;12.38;69.67;99085.22;8210457;28;20072;-73
2022/04/26 07:38:22;;;;;;;4.20;3.80;;;;;;;12.74;66.04;99101.09;8226207;28;20085;-74
2022/04/26 07:42:23;;;;;;;5.38;4.05;;;;;;;13.12;62.87;99098.69;8226977;28;20042;-73
2022/04/26 07:46:25;;;;;;;4.32;3.92;;;;;;;13.35;62.06;99100.84;8225770;28;20052;-73
2022/04/26 07:50:28;;;;;;;4.68;3.80;;;;;;;13.52;61.47;99103.97;8223693;28;20051;-72
2022/04/26 07:54:29;;;;;;;7.13;4.18;;;;;;;13.33;61.27;99110.47;8206695;28;20043;-72
2022/04/26 07:58:32;;;;;;;5.83;4.23;;;;;;;13.12;60.95;99118.69;8225842;28;20061;-73
2022/04/26 08:02:35;;;;;;;7.35;4.60;;;;;;;13.33;61.71;99113.06;8218715;28;20050;-74
2022/04/26 08:06:36;;;;;;;6.55;4.35;;;;;;;13.58;59.28;99113.41;8224740;28;20051;-74
2022/04/26 08:10:38;;;;;;;4.80;3.95;;;;;;;13.17;59.23;99124.66;8191662;28;20070;-74
2022/04/26 08:14:39;;;;;;;5.10;3.57;;;;;;;13.25;59.91;99128.00;8223668;28;20537;-74
2022/04/26 08:18:41;;;;;;;7.72;3.90;;;;;;;13.40;58.78;99127.69;8204214;28;20070;-72
2022/04/26 08:22:43;;;;;;;3.80;3.17;;;;;;;13.62;59.57;99133.31;8205388;28;20162;-72
2022/04/26 08:31:05;;;;;;;3.08;2.50;;;;;;;14.72;57.33;99150.00;8219579;28;20054;-72
2022/04/26 08:35:10;;;;;;;3.70;3.30;;;;;;;15.32;55.40;99144.03;8223900;28;20768;-72
2022/04/26 08:39:12;;;;;;;3.05;2.75;;;;;;;15.33;55.05;99152.75;8223656;28;20352;-72
2022/04/26 08:43:13;;;;;;;4.63;2.50;;;;;;;14.82;52.86;99161.91;8223531;28;20151;-72
2022/04/26 08:51:34;;;;;;;2.22;2.03;;;;;;;14.04;57.27;99162.88;8223016;28;20130;-72
2022/04/26 08:55:44;;;;;;;2.90;2.70;;;;;;;13.92;57.50;99170.97;8226666;28;20548;-72
2022/04/26 08:59:52;;;;;;;2.30;2.10;;;;;;;13.84;57.53;99183.34;8224610;28;20152;-72
2022/04/26 09:03:55;;;;;;;3.13;2.42;;;;;;;14.11;57.13;99174.03;8202066;28;20138;-72
2022/04/26 09:07:58;;;;;;;2.47;2.15;;;;;;;14.75;55.57;99177.81;8223654;28;20046;-72
2022/04/26 09:12:01;;;;;;;1.98;1.45;;;;;;;15.43;54.07;99182.97;8223922;28;20711;-72
2022/04/26 09:16:06;;;;;;;1.38;1.30;;;;;;;15.18;52.15;99190.63;8229554;28;20074;-72
2022/04/26 09:20:09;;;;;;;1.60;1.50;;;;;;;14.60;53.17;99202.53;8224584;28;20097;-72
2022/04/26 09:24:12;;;;;;;2.85;1.65;;;;;;;13.97;55.59;99210.03;8212551;28;20093;-72
2022/04/26 09:28:26;;;;;;;1.92;1.17;;;;;;;13.52;57.05;99220.50;8230694;28;20056;-72
2022/04/26 09:32:43;;;;;;;1.50;1.40;;;;;;;13.34;59.24;99218.25;8224528;28;20133;-72
2022/04/26 09:36:46;;;;;;;1.20;1.13;;;;;;;13.56;58.52;99220.41;8217497;28;20459;-72
2022/04/26 09:40:48;;;;;;;2.30;1.20;;;;;;;13.72;57.67;99213.16;8207090;28;20424;-72
2022/04/26 09:45:03;;;;;;;4.70;0.95;;;;;;;13.69;56.97;99222.78;8208257;28;20053;-72
2022/04/26 09:49:05;;;;;;;5.25;1.23;;;;;;;13.65;57.19;99226.34;8194097;28;20043;-72
2022/04/26 09:53:07;;;;;;;2.05;1.65;;;;;;;13.98;56.62;99215.19;8218596;28;20078;-72
2022/04/26 09:57:09;;;;;;;1.60;1.48;;;;;;;14.77;54.51;99217.81;8209050;28;20085;-72
2022/04/26 10:01:39;;;;;;;1.50;1.40;;;;;;;15.11;54.46;99223.94;8199482;28;20054;-72
2022/04/26 10:05:42;;;;;;;3.08;2.85;;;;;;;15.05;50.44;99228.44;8210439;28;20097;-72
2022/04/26 10:09:46;;;;;;;3.42;3.05;;;;;;;15.02;50.64;99228.53;8205278;28;20051;-72
2022/04/26 10:13:48;;;;;;;3.92;3.60;;;;;;;14.56;49.85;99234.00;8196959;28;20060;-72
2022/04/26 10:17:54;;;;;;;4.40;4.00;;;;;;;14.06;51.30;99242.03;8212074;28;20448;-72
2022/04/26 10:21:56;;;;;;;4.75;4.35;;;;;;;13.80;54.45;99245.16;8219472;28;20503;-72
2022/04/26 10:30:49;;;;;;;4.50;4.05;;;;;;;13.67;57.22;99238.47;8211713;28;20046;-72
2022/04/26 10:34:51;;;;;;;4.45;4.05;;;;;;;13.95;55.08;99241.38;8197870;28;20133;-72
2022/04/26 10:39:12;;;;;;;5.22;4.68;;;;;;;13.98;55.68;99237.84;8210631;28;20078;-72
2022/04/26 10:43:13;;;;;;;4.43;4.03;;;;;;;14.01;56.23;99243.03;8198942;28;20182;-73
2022/04/26 10:47:20;;;;;;;5.43;4.93;;;;;;;14.29;56.30;99244.13;8201743;28;20146;-72
2022/04/26 10:51:37;;;;;;;5.43;4.95;;;;;;;14.89;56.12;99246.25;8219400;28;20050;-72
2022/04/26 10:55:38;;;;;;;6.03;5.35;;;;;;;15.59;55.02;99246.25;8223113;28;20077;-72
2022/04/26 10:59:41;;;;;;;8.77;5.30;;;;;;;16.32;52.27;99236.28;8216730;28;20062;-72
2022/04/26 11:03:56;;;;;;;8.77;6.32;;;;;;;16.69;48.20;99241.28;8199119;28;20380;-72
2022/04/26 11:07:58;;;;;;;8.88;7.97;;;;;;;16.76;47.47;99245.44;8217083;28;20054;-72
2022/04/26 11:12:01;;;;;;;6.40;5.78;;;;;;;17.14;48.54;99243.34;8219618;28;20142;-71
2022/04/26 11:16:08;;;;;;;7.88;6.72;;;;;;;17.48;47.34;99238.66;8210060;28;20055;-72
2022/04/26 11:20:16;;;;;;;7.97;7.18;;;;;;;17.10;46.18;99241.72;8218336;28;20047;-72
2022/04/26 11:28:39;;;;;;;6.70;6.10;;;;;;;16.06;47.34;99238.84;8219313;28;20046;-72
2022/04/26 11:32:44;;;;;;;7.50;6.20;;;;;;;15.85;49.53;99249.03;8215412;28;20058;-72
2022/04/26 11:36:46;;;;;;;7.32;6.72;;;;;;;15.86;48.00;99249.88;8212135;28;20308;-72
2022/04/26 11:40:49;;;;;;;;;;;;;;;16.10;47.53;99258.78;8209227;28;20158;-72
2022/04/26 11:45:07;;;;;;;9.75;5.93;;;;;;;15.93;47.98;99261.88;8199731;28;20025;-71
2022/04/26 11:49:09;;;;;;;7.15;6.28;;;;;;;15.61;48.28;99271.47;8219134;28;20038;-72
2022/04/26 11:53:15;;;;;;;6.63;5.87;;;;;;;15.28;47.38;99281.06;8193607;28;20075;-72
2022/04/26 11:57:21;;;;;;;5.07;4.57;;;;;;;15.55;48.61;99273.38;8216968;28;20046;-73
2022/04/26 12:01:22;;;;;;;6.45;4.35;;;;;;;16.07;48.66;99272.84;8208151;28;20078;-72
2022/04/26 12:05:24;;;;;;;6.28;5.72;;;;;;;16.76;46.62;99284.78;8212465;28;20071;-71
2022/04/26 12:09:26;;;;;;;8.00;7.07;;;;;;;17.05;44.01;99296.09;8216393;28;20591;-73
2022/04/26 12:13:30;;;;;;;6.55;5.95;;;;;;;17.35;43.44;99292.47;8203019;28;20495;-73
2022/04/26 12:17:31;;;;;;;6.38;5.78;;;;;;;17.48;43.87;99293.78;8213299;28;20051;-71
2022/04/26 12:21:57;;;;;;;7.83;6.93;;;;;;;17.70;43.21;99286.06;8199848;28;20105;-72
2022/04/26 12:26:04;;;;;;;7.00;6.32;;;;;;;18.11;41.91;99275.81;8213836;28;20343;-72
2022/04/26 12:30:09;;;;;;;6.30;5.65;;;;;;;17.70;42.84;99311.44;8195448;28;20042;-72
2022/04/26 12:34:16;;;;;;;6.03;5.43;;;;;;;16.67;45.48;99319.13;8208795;28;20043;-72
2022/04/26 12:38:18;;;;;;;9.88;6.32;;;;;;;15.75;48.35;99330.47;8218828;28;20054;-72
2022/04/26 12:42:34;;;;;;;5.75;4.70;;;;;;;14.90;51.33;99328.16;8219967;28;20063;-72
2022/04/26 12:46:47;;;;;;;5.05;4.32;;;;;;;14.53;53.28;99334.19;8214531;28;20085;-72
2022/04/26 12:51:17;;;;;;;4.55;4.05;;;;;;;13.87;57.23;99348.56;8221225;28;20764;-72
2022/04/26 12:55:33;;;;;;;5.82;3.67;;;;;;;13.52;60.76;99346.56;8207930;28;20424;-71
2022/04/26 12:59:35;;;;;;;4.03;3.70;;;;;;;13.17;64.80;99352.31;8217915;28;20435;-70
2022/04/26 13:03:40;;;;;;;6.82;3.92;;;;;;;12.82;66.67;99358.06;8215002;28;20368;-69
2022/04/26 13:07:43;;;;;;;4.28;3.88;;;;;;;12.56;68.48;99353.19;8218730;28;20105;-71
2022/04/26 13:11:45;;;;;;;3.83;3.53;;;;;;;12.33;70.15;99352.63;8225270;28;20078;-71
2022/04/26 13:15:47;;;;;;;5.53;4.03;;;;;;;12.33;71.82;99343.06;8216989;28;20063;-71
2022/04/26 13:19:49;;;;;;;4.97;4.40;;;;;;;12.26;71.67;99348.38;8216315;28;20126;-70
2022/04/26 13:23:51;;;;;;;5.43;4.85;;;;;;;12.19;72.45;99339.75;8218520;28;20778;-72
2022/04/26 13:27:52;;;;;;;6.13;4.95;;;;;;;12.27;73.25;99343.16;8203563;28;20686;-72
2022/04/26 13:31:54;;;;;;;5.05;4.43;;;;;;;12.35;72.74;99341.31;8210974;28;20046;-70
2022/04/26 13:35:56;;;;;;;6.00;4.72;;;;;;;12.51;73.88;99341.97;8216556;28;20837;-71
2022/04/26 13:40:00;;;;;;;4.60;4.15;;;;;;;12.65;72.77;99336.59;8217799;28;20046;-71
2022/04/26 13:44:02;;;;;;;5.15;4.65;;;;;;;12.75;72.27;99345.13;8198200;28;20080;-70
2022/04/26 13:48:14;;;;;;;6.03;4.85;;;;;;;12.87;73.09;99344.97;8216066;28;20085;-71
2022/04/26 13:52:15;;;;;;;6.03;4.85;;;;;;;12.83;71.66;99343.28;8212463;28;20400;-71
2022/04/26 13:56:17;;;;;;;5.40;4.22;;;;;;;12.83;71.74;99344.16;8207483;28;20150;-71
2022/04/26 14:00:18;;;;;;;6.60;5.45;;;;;;;12.91;71.47;99336.19;8222427;28;20958;-71
2022/04/26 14:04:23;;;;;;;5.55;5.05;;;;;;;12.92;71.23;99343.13;8217021;28;20053;-71
2022/04/26 14:08:24;;;;;;;5.22;4.47;;;;;;;12.94;70.85;99352.69;8217539;28;20047;-71
2022/04/26 14:12:25;;;;;;;5.28;4.78;;;;;;;13.00;70.73;99343.91;8216008;28;20072;-71
2022/04/26 14:25:10;;;;;;;5.68;5.07;;;;;;;13.32;71.55;99338.22;8213012;28;20047;-74
2022/04/26 14:29:12;;;;;;;5.63;5.03;;;;;;;13.46;71.64;99335.38;8214310;28;20834;-72
2022/04/26 14:33:19;;;;;;;4.78;4.38;;;;;;;13.59;71.32;99344.72;8212601;28;20102;-72
2022/04/26 14:37:22;;;;;;;;;;;;;;;13.76;71.09;99340.06;8192049;28;20162;-72
2022/04/26 14:41:25;;;;;;;4.13;3.80;;;;;;;13.98;69.83;99337.03;8207948;28;19980;-72
2022/04/26 14:45:32;;;;;;;3.97;3.65;;;;;;;14.13;68.22;99347.19;8202250;28;20043;-70
2022/04/26 14:49:34;;;;;;;4.75;4.22;;;;;;;14.32;66.46;99343.31;8204124;28;20327;-71
2022/04/26 14:53:36;;;;;;;4.50;4.07;;;;;;;14.71;66.69;99343.41;8187133;28;20133;-71
2022/04/26 14:57:40;;;;;;;4.32;3.30;;;;;;;14.90;63.91;99336.91;8197102;28;20145;-71
2022/04/26 15:01:46;;;;;;;;;;;;;;;15.32;63.97;99340.25;8198829;28;20055;-71
2022/04/26 15:05:48;;;;;;;4.22;3.17;;;;;;;15.43;60.02;99350.44;8211436;28;19938;-72
2022/04/26 15:09:52;;;;;;;4.65;3.10;;;;;;;15.21;58.86;99350.09;8205547;28;20051;-70
2022/04/26 15:18:14;;;;;;;3.30;3.00;;;;;;;14.80;61.04;99361.50;8186451;28;20524;-72
2022/04/26 15:22:19;;;;;;;3.10;2.90;;;;;;;14.59;60.01;99367.22;8197945;28;20057;-72
2022/04/26 15:26:21;;;;;;;2.80;2.60;;;;;;;14.49;60.72;99379.59;8201484;28;20053;-72
2022/04/26 15:30:22;;;;;;;;;;;;;;;14.33;60.00;99380.75;8197625;28;20047;-72
2022/04/26 15:34:24;;;;;;;2.97;2.55;;;;;;;14.24;60.62;99384.41;8190779;28;19969;-72
2022/04/26 15:38:27;;;;;;;4.72;3.65;;;;;;;14.33;60.18;99389.44;8202091;28;20056;-71
2022/04/26 15:42:31;;;;;;;3.88;3.55;;;;;;;14.74;59.68;99388.66;8200078;28;20299;-72
2022/04/26 15:46:32;;;;;;;5.40;4.13;;;;;;;14.82;58.56;99380.63;8208156;28;20038;-71
2022/04/26 15:50:34;;;;;;;5.35;4.00;;;;;;;14.75;58.85;99385.16;8203060;28;20043;-71
2022/04/26 15:54:36;;;;;;;5.23;4.30;;;;;;;14.50;59.40;99399.59;8192980;28;20062;-72
2022/04/26 15:58:38;;;;;;;;;;;;;;;14.35;60.06;99392.03;8209803;28;20057;-71
2022/04/26 16:02:40;;;;;;;5.80;4.28;;;;;;;14.23;61.34;99398.38;8218545;28;19930;-71
2022/04/26 16:06:42;;;;;;;5.60;4.57;;;;;;;14.15;62.28;99403.72;8205484;28;20379;-71
2022/04/26 16:23:54;;;;;;;6.93;5.82;;;;;;;13.66;60.92;99408.97;8208582;28;20046;-71
2022/04/26 16:27:57;;;;;;;6.45;5.85;;;;;;;13.58;61.22;99413.44;8198781;28;20061;-71
2022/04/26 16:32:00;;;;;;;7.72;5.38;;;;;;;13.52;61.20;99418.75;8201254;28;20059;-72
2022/04/26 16:36:01;;;;;;;6.47;5.28;;;;;;;13.40;60.27;99418.94;8211544;28;20732;-71
2022/04/26 16:40:04;;;;;;;5.97;5.10;;;;;;;13.16;60.79;99421.00;8211573;28;20105;-72
2022/04/26 16:44:07;;;;;;;5.60;5.07;;;;;;;13.06;61.11;99432.44;8209369;28;20065;-71
2022/04/26 16:48:08;;;;;;;6.70;5.20;;;;;;;12.86;61.60;99429.22;8208658;28;20150;-72
2022/04/26 16:52:10;;;;;;;7.78;5.78;;;;;;;12.77;62.40;99430.22;8217324;28;20051;-72
2022/04/26 16:56:11;;;;;;;7.13;6.07;;;;;;;12.68;62.69;99436.41;8215715;28;20334;-71
2022/04/26 17:00:14;;;;;;;7.00;6.07;;;;;;;12.59;63.01;99439.13;8213005;28;20047;-71
2022/04/26 17:04:16;;;;;;;6.55;5.93;;;;;;;12.57;62.00;99440.03;8194120;28;20110;-72
2022/04/26 17:08:18;;;;;;;6.72;5.70;;;;;;;12.56;63.20;99443.50;8210674;28;20047;-71
2022/04/26 17:12:20;;;;;;;7.45;6.07;;;;;;;12.57;62.99;99451.31;8211036;28;20054;-71
2022/04/26 17:16:21;;;;;;;8.52;5.75;;;;;;;12.54;63.51;99446.09;8210390;28;20751;-71
2022/04/26 17:20:23;;;;;;;5.63;4.93;;;;;;;12.53;63.40;99452.19;8212502;28;20153;-71
2022/04/26 17:28:45;;;;;;;6.60;5.15;;;;;;;12.39;62.50;99457.59;8208735;28;20078;-72
2022/04/26 17:32:47;;;;;;;4.85;4.40;;;;;;;12.37;62.30;99463.66;8204175;28;20086;-71
2022/04/26 17:36:49;;;;;;;;;;;;;;;12.31;62.96;99475.00;8205815;28;20059;-71
2022/04/26 17:41:10;;;;;;;4.32;3.67;;;;;;;12.20;63.51;99475.97;8205823;28;19989;-71
2022/04/26 17:45:12;;;;;;;4.97;4.40;;;;;;;12.10;63.33;99483.03;8191518;28;20544;-71
2022/04/26 17:49:13;;;;;;;5.77;4.17;;;;;;;12.00;64.72;99494.38;8205679;28;20057;-71
2022/04/26 17:57:35;;;;;;;5.47;4.45;;;;;;;11.86;65.55;99504.94;8216022;28;20081;-71
2022/04/26 18:01:37;;;;;;;5.70;4.23;;;;;;;11.74;64.99;99502.38;8205004;28;20065;-72
2022/04/26 18:05:40;;;;;;;5.30;4.25;;;;;;;11.64;64.63;99506.78;8211475;28;20035;-72
2022/04/26 18:09:42;;;;;;;4.72;4.00;;;;;;;11.57;65.00;99514.63;8206236;28;20356;-72
2022/04/26 18:13:44;;;;;;;3.88;3.47;;;;;;;11.41;64.63;99519.94;8202009;28;20074;-71
2022/04/26 18:17:45;;;;;;;4.97;3.63;;;;;;;11.34;64.47;99525.19;8212826;28;20089;-72
2022/04/26 18:21:46;;;;;;;5.03;3.35;;;;;;;11.16;66.44;99527.00;8201021;28;20336;-72
2022/04/26 18:30:09;;;;;;;3.15;2.85;;;;;;;10.92;66.55;99534.00;8201349;28;20090;-72
2022/04/26 18:34:10;;;;;;;3.65;3.35;;;;;;;10.84;67.58;99544.44;8204084;28;20065;-72
2022/04/26 18:38:13;;;;;;;3.20;2.85;;;;;;;10.72;67.97;99555.72;8209292;28;20070;-72
2022/04/26 18:42:14;;;;;;;3.13;2.92;;;;;;;10.64;69.09;99565.28;8205818;28;20055;-72
2022/04/26 18:46:19;;;;;;;3.63;3.15;;;;;;;10.55;69.21;99575.66;8202479;28;20086;-69
2022/04/26 18:50:21;;;;;;;2.83;2.63;;;;;;;10.50;67.77;99580.00;8206990;28;20074;-70
2022/04/26 18:54:24;;;;;;;3.33;2.57;;;;;;;10.43;68.92;99573.97;8209716;28;20145;-70
2022/04/26 18:58:27;;;;;;;2.28;2.08;;;;;;;10.41;67.78;99591.28;8199883;28;20304;-71
2022/04/26 19:02:29;;;;;;;1.85;1.75;;;;;;;10.33;69.48;99592.13;8202736;28;20055;-71
2022/04/26 19:06:30;;;;;;;2.30;2.10;;;;;;;10.25;69.02;99594.72;8212719;28;20133;-70
2022/04/26 19:14:53;;;;;;;1.63;1.52;;;;;;;10.02;70.24;99598.97;8205062;28;20058;-70
2022/04/26 19:18:55;;;;;;;2.75;1.80;;;;;;;9.94;71.79;99607.63;8214820;28;20074;-71
2022/04/26 19:22:58;;;;;;;2.22;1.95;;;;;;;9.81;72.73;99616.25;8220840;28;20053;-71
2022/04/26 19:26:59;;;;;;;3.60;1.55;;;;;;;9.67;73.65;99615.34;8221763;28;20458;-70
2022/04/26 19:31:01;;;;;;;2.10;1.60;;;;;;;9.67;72.03;99612.75;8213155;28;20059;-70
2022/04/26 19:35:02;;;;;;;2.38;1.55;;;;;;;9.69;72.68;99623.97;8214936;28;20138;-70
2022/04/26 19:39:04;;;;;;;1.77;1.67;;;;;;;9.71;73.73;99627.47;8205687;28;20074;-71
2022/04/26 19:43:05;;;;;;;1.80;1.40;;;;;;;9.66;73.14;99631.75;8220826;28;20098;-71
2022/04/26 19:47:07;;;;;;;2.05;1.50;;;;;;;9.62;73.10;99641.25;8206038;28;20078;-72
2022/04/26 19:51:27;;;;;;;2.00;1.25;;;;;;;9.52;72.78;99631.75;8217191;28;20135;-70
2022/04/26 19:55:28;;;;;;;1.30;1.15;;;;;;;9.42;74.12;99634.28;8206158;28;20511;-71
2022/04/26 19:59:30;;;;;;;1.20;1.20;;;;;;;9.23;74.49;99634.19;8217520;28;20057;-71
2022/04/26 20:03:43;;;;;;;;;;;;;;;8.99;76.00;99644.44;8205305;28;20046;-71
2022/04/26 20:07:45;;;;;;;1.42;1.23;;;;;;;8.79;76.75;99642.56;8213161;28;19930;-71
2022/04/26 20:11:46;;;;;;;1.20;1.10;;;;;;;8.70;77.01;99646.81;8206266;28;20149;-71
2022/04/26 20:15:48;;;;;;;2.03;1.30;;;;;;;8.64;76.47;99654.53;8207567;28;20098;-72
2022/04/26 20:19:51;;;;;;;3.93;1.20;;;;;;;8.62;76.48;99651.94;8219463;28;20050;-71
2022/04/26 20:23:52;;;;;;;;;;;;;;;8.59;76.15;99654.50;8199848;28;20310;-71
2022/04/26 20:32:19;;;;;;;0.90;0.85;;;;;;;8.48;75.40;99659.59;8210914;28;20054;-71
2022/04/26 20:36:21;;;;;;;4.03;1.20;;;;;;;8.44;76.42;99657.84;8198223;28;20818;-70
2022/04/26 20:40:24;;;;;;;0.95;0.88;;;;;;;8.38;77.06;99667.25;8188180;28;20050;-71
2022/04/26 20:44:26;;;;;;;1.08;0.98;;;;;;;8.30;77.29;99671.47;8209157;28;20038;-71
2022/04/26 20:48:29;;;;;;;2.00;1.63;;;;;;;8.29;77.45;99670.59;8210203;28;20134;-71
2022/04/26 20:52:31;;;;;;;1.55;1.17;;;;;;;8.24;77.97;99667.09;8214489;28;20065;-71
2022/04/26 20:56:32;;;;;;;1.17;1.08;;;;;;;8.20;77.74;99667.91;8208930;28;20043;-70
2022/04/26 21:00:33;;;;;;;1.67;1.25;;;;;;;8.20;78.08;99667.91;8208921;28;20042;-71
2022/04/26 21:04:35;;;;;;;1.45;1.35;;;;;;;8.21;78.91;99672.25;8201532;28;20070;-70
2022/04/26 21:08:39;;;;;;;2.42;1.25;;;;;;;8.19;79.79;99667.06;8214181;28;20042;-71
2022/04/26 21:17:00;;;;;;;1.30;1.20;;;;;;;8.02;79.82;99660.84;8210176;28;20417;-70
2022/04/26 21:21:03;;;;;;;2.80;1.52;;;;;;;7.89;80.54;99659.84;8209145;28;20150;-70
2022/04/26 21:25:04;;;;;;;1.70;1.17;;;;;;;7.84;80.85;99664.09;8212398;28;20043;-70
2022/04/26 21:29:06;;;;;;;1.70;1.25;;;;;;;7.82;80.45;99673.56;8209255;28;20055;-70
2022/04/26 21:33:07;;;;;;;1.73;1.37;;;;;;;7.83;80.03;99669.25;8211454;28;20094;-70
2022/04/26 21:37:09;;;;;;;1.30;1.20;;;;;;;7.75;80.37;99666.59;8215028;28;20077;-70
2022/04/26 21:41:10;;;;;;;2.50;1.10;;;;;;;7.57;81.21;99667.25;8207547;28;20088;-69
2022/04/26 21:45:12;;;;;;;1.40;1.30;;;;;;;7.40;81.28;99668.78;8218190;28;20726;-70
2022/04/26 21:51:31;;;;;;;1.40;1.30;;;;;;;7.33;81.75;99668.66;8219765;28;20065;-70
2022/04/26 21:53:35;;;;;;;1.48;1.13;;;;;;;7.22;81.34;99674.56;8220407;28;20085;-71
2022/04/26 21:57:36;;;;;;;1.30;1.20;;;;;;;7.06;81.71;99677.78;8220442;28;20055;-70
2022/04/26 22:01:38;;;;;;;1.50;1.40;;;;;;;6.94;82.20;99680.16;8199084;28;20062;-71
2022/04/26 22:05:40;;;;;;;2.23;1.40;;;;;;;6.80;82.71;99679.94;8221426;28;20063;-70
2022/04/26 22:09:42;;;;;;;1.30;1.20;;;;;;;6.65;82.41;99687.47;8221335;28;20868;-70
2022/04/26 22:13:43;;;;;;;1.87;1.23;;;;;;;6.54;83.68;99692.47;8221142;28;20190;-70
2022/04/26 22:17:45;;;;;;;2.53;1.20;;;;;;;6.47;83.96;99694.91;8215187;28;20046;-70
2022/04/26 22:21:46;;;;;;;1.70;1.57;;;;;;;6.39;84.59;99697.34;8221388;28;20130;-70
2022/04/26 22:25:47;;;;;;;1.67;1.57;;;;;;;6.43;84.91;99706.00;8220389;28;20047;-70
2022/04/26 22:29:49;;;;;;;2.00;1.87;;;;;;;6.59;84.54;99702.84;8200655;28;20039;-70
2022/04/26 22:33:50;;;;;;;1.70;1.60;;;;;;;6.71;84.57;99705.63;8181103;28;20057;-70
2022/04/26 22:37:52;;;;;;;1.90;1.73;;;;;;;6.80;83.62;99710.94;8213634;28;20047;-70
2022/04/26 22:41:53;;;;;;;1.70;1.50;;;;;;;6.69;84.04;99721.94;8207041;28;20049;-71
2022/04/26 22:45:55;;;;;;;1.63;0.90;;;;;;;6.57;83.79;99731.19;8213600;28;20101;-70
2022/04/26 22:49:57;;;;;;;1.70;1.60;;;;;;;6.49;83.50;99737.09;8211552;28;20053;-70
2022/04/26 22:53:58;;;;;;;2.00;1.65;;;;;;;6.44;83.53;99738.69;8213660;28;20078;-71
2022/04/26 22:58:00;;;;;;;2.30;1.57;;;;;;;6.27;83.58;99739.25;8213653;28;20047;-71
2022/04/26 23:02:01;;;;;;;1.47;1.37;;;;;;;6.15;84.07;99748.50;8206216;28;20058;-70
2022/04/26 23:06:03;;;;;;;2.53;1.90;;;;;;;5.96;84.05;99745.56;8218734;28;20043;-70
2022/04/26 23:10:06;;;;;;;1.73;1.63;;;;;;;5.88;85.41;99753.94;8224193;28;20080;-70
2022/04/26 23:14:07;;;;;;;2.15;1.52;;;;;;;5.87;85.23;99757.34;8215216;28;20063;-70
2022/04/26 23:18:09;;;;;;;1.97;1.80;;;;;;;5.73;85.39;99760.50;8216772;28;20065;-70
2022/04/26 23:22:10;;;;;;;1.77;1.50;;;;;;;5.66;85.44;99770.66;8200248;28;20066;-70
2022/04/26 23:26:12;;;;;;;1.83;1.73;;;;;;;5.53;85.83;99773.78;8216243;28;20043;-70
2022/04/26 23:30:13;;;;;;;2.73;1.90;;;;;;;5.49;85.96;99780.59;8216102;28;20416;-70
2022/04/26 23:38:35;;;;;;;3.97;2.20;;;;;;;5.47;86.82;99779.69;8233582;28;20061;-70
2022/04/26 23:42:37;;;;;;;2.50;2.03;;;;;;;5.44;86.85;99777.94;8216183;28;20056;-70
2022/04/26 23:46:39;;;;;;;2.40;2.20;;;;;;;5.41;86.62;99774.41;8226095;28;20060;-70
2022/04/26 23:55:00;;;;;;;1.97;1.87;;;;;;;5.24;86.14;99771.47;8215855;28;20054;-70
2022/04/26 23:59:01;;;;;;;2.00;1.80;;;;;;;5.15;86.22;99782.41;8224137;28;20394;-70
